Time;durP1;ratioP1;P1;durP2;ratioP2;P2;SDS_P1;SDS_P2;PMS_P1;PMS_P2;Temp;Humidity;BMP_temperature;BMP_pressure;BME280_temperature;BME280_humidity;BME280_pressure;Samples;Min_cycle;Max_cycle;Signal;HPM_P1;HPM_P2
2023/07/11 00:01:21;;;;;;;3.83;2.97;;;25.20;1.00;;;;;;5117248;28;20033;-68
2023/07/11 00:03:54;;;;;;;4.68;2.47;;;25.10;1.00;;;;;;5182978;28;20033;-69
2023/07/11 00:06:26;;;;;;;3.28;2.63;;;25.10;1.00;;;;;;5119106;28;20033;-69
2023/07/11 00:09:02;;;;;;;4.72;3.03;;;25.00;1.00;;;;;;5118934;28;20253;-68
2023/07/11 00:11:37;;;;;;;3.95;2.83;;;24.90;57.50;;;;;;5204305;28;20040;-69
2023/07/11 00:14:11;;;;;;;5.07;2.80;;;24.80;99.90;;;;;;5102340;28;20033;-68
2023/07/11 00:16:43;;;;;;;3.30;2.85;;;24.70;99.90;;;;;;5206119;28;20241;-67
2023/07/11 00:19:19;;;;;;;4.07;3.40;;;24.60;99.90;;;;;;5088621;28;20035;-68
2023/07/11 00:21:51;;;;;;;3.75;3.10;;;24.60;99.90;;;;;;5102300;28;20027;-67
2023/07/11 00:24:22;;;;;;;4.10;3.42;;;24.50;1.00;;;;;;5139457;28;20521;-68
2023/07/11 00:26:53;;;;;;;4.05;2.90;;;24.40;1.00;;;;;;5219583;28;20012;-68
2023/07/11 00:29:27;;;;;;;5.03;3.47;;;24.30;1.00;;;;;;5224046;28;20043;-69
2023/07/11 00:31:58;;;;;;;5.43;3.75;;;24.30;62.30;;;;;;5198832;28;20312;-70
2023/07/11 00:34:30;;;;;;;5.72;3.03;;;24.20;99.90;;;;;;5185248;28;20034;-67
2023/07/11 00:37:03;;;;;;;3.35;2.88;;;24.10;99.90;;;;;;5155211;28;20042;-67
2023/07/11 00:39:35;;;;;;;5.30;3.40;;;24.10;1.00;;;;;;5184475;28;20303;-68
2023/07/11 00:42:10;;;;;;;5.50;3.10;;;24.00;1.00;;;;;;5117291;28;20031;-67
2023/07/11 00:44:57;;;;;;;5.88;3.58;;;24.00;1.00;;;;;;5116118;28;20390;-69
2023/07/11 00:47:31;;;;;;;6.57;3.67;;;23.90;99.90;;;;;;5115528;28;20043;-68
2023/07/11 00:50:11;;;;;;;4.25;3.00;;;23.90;99.90;;;;;;5222754;28;20043;-68
2023/07/11 00:52:43;;;;;;;5.65;3.40;;;23.80;1.00;;;;;;5204429;28;20040;-69
2023/07/11 00:55:17;;;;;;;5.28;3.45;;;23.70;1.00;;;;;;5164953;28;20043;-68
2023/07/11 00:57:51;;;;;;;4.45;3.20;;;23.60;1.00;;;;;;5182686;28;20042;-68
2023/07/11 01:00:22;;;;;;;;;;;23.50;1.00;;;;;;5200649;28;20045;-68
2023/07/11 01:02:58;;;;;;;4.65;3.50;;;23.50;99.90;;;;;;5282490;22;19916;-61
2023/07/11 01:05:33;;;;;;;5.85;3.47;;;23.40;99.90;;;;;;5120085;28;20049;-63
2023/07/11 01:08:05;;;;;;;4.53;3.33;;;23.30;99.90;;;;;;5131800;28;20046;-62
2023/07/11 01:10:38;;;;;;;4.70;3.50;;;23.30;99.90;;;;;;5116304;28;20438;-66
2023/07/11 01:13:10;;;;;;;5.72;3.63;;;23.30;1.00;;;;;;5138949;28;20064;-63
2023/07/11 01:15:44;;;;;;;6.05;3.53;;;23.20;1.00;;;;;;5114844;28;20043;-65
2023/07/11 01:18:21;;;;;;;5.18;3.63;;;23.10;1.00;;;;;;5104812;28;20039;-63
2023/07/11 01:20:54;;;;;;;5.28;3.60;;;23.10;1.00;;;;;;5137418;28;20283;-64
2023/07/11 01:23:26;;;;;;;4.35;3.38;;;23.10;1.00;;;;;;5120418;28;20331;-61
2023/07/11 01:26:06;;;;;;;4.68;3.90;;;23.10;1.00;;;;;;5083839;29;20047;-64
2023/07/11 01:28:39;;;;;;;7.03;3.97;;;23.00;1.00;;;;;;5084067;29;20047;-61
2023/07/11 01:31:10;;;;;;;7.13;3.97;;;23.00;1.00;;;;;;5076782;28;20343;-62
2023/07/11 01:33:41;;;;;;;4.50;3.55;;;22.90;99.90;;;;;;5132818;28;20027;-64
2023/07/11 01:36:13;;;;;;;4.53;3.22;;;22.90;99.90;;;;;;5134365;28;20358;-62
2023/07/11 01:38:45;;;;;;;4.13;3.67;;;22.80;99.90;;;;;;5103465;28;20236;-63
2023/07/11 01:41:16;;;;;;;4.70;3.30;;;22.80;99.90;;;;;;5102930;28;20049;-62
2023/07/11 01:43:48;;;;;;;7.22;4.32;;;22.80;1.00;;;;;;5135100;28;20045;-61
2023/07/11 01:46:19;;;;;;;5.90;4.50;;;22.80;1.00;;;;;;5133644;28;20030;-62
2023/07/11 01:48:53;;;;;;;4.93;4.10;;;22.80;1.00;;;;;;5078129;28;20332;-63
2023/07/11 01:51:25;;;;;;;6.00;3.90;;;22.70;1.00;;;;;;5106280;28;20034;-61
2023/07/11 01:54:01;;;;;;;5.85;4.10;;;22.70;1.00;;;;;;5102436;28;20235;-64
2023/07/11 01:56:32;;;;;;;6.30;4.30;;;22.70;1.00;;;;;;5102490;28;20274;-62
2023/07/11 01:59:04;;;;;;;6.25;4.38;;;22.60;1.00;;;;;;5117333;28;20049;-60
2023/07/11 02:01:55;;;;;;;4.20;3.55;;;22.60;1.00;;;;;;5115833;28;20033;-63
2023/07/11 02:04:28;;;;;;;7.85;3.92;;;22.50;1.00;;;;;;5135454;28;20046;-63
2023/07/11 02:06:59;;;;;;;6.05;4.72;;;22.40;1.00;;;;;;5135525;28;20331;-61
2023/07/11 02:09:35;;;;;;;6.75;4.40;;;22.40;1.00;;;;;;5129869;28;20031;-63
2023/07/11 02:12:06;;;;;;;5.35;4.18;;;22.30;1.00;;;;;;5116662;29;20041;-65
2023/07/11 02:14:43;;;;;;;4.65;4.22;;;22.30;1.00;;;;;;5087717;28;20066;-63
2023/07/11 02:17:15;;;;;;;7.38;4.10;;;22.20;1.00;;;;;;5084941;28;20336;-63
2023/07/11 02:19:49;;;;;;;6.93;4.72;;;22.10;1.00;;;;;;5107983;28;20043;-62
2023/07/11 02:22:23;;;;;;;7.18;3.83;;;22.10;20.20;;;;;;5090267;28;20198;-63
2023/07/11 02:24:59;;;;;;;5.32;4.70;;;22.10;59.00;;;;;;5086407;29;20252;-62
2023/07/11 02:27:30;;;;;;;5.07;4.10;;;22.10;64.60;;;;;;5093674;29;20239;-64
2023/07/11 02:30:04;;;;;;;5.82;4.13;;;22.00;99.90;;;;;;5119618;29;20366;-66
2023/07/11 02:32:39;;;;;;;3.92;3.42;;;22.00;39.80;;;;;;5114204;29;20293;-64
2023/07/11 02:35:13;;;;;;;6.85;4.18;;;22.00;99.90;;;;;;5111569;28;20018;-64
2023/07/11 02:37:48;;;;;;;5.22;3.75;;;21.90;99.90;;;;;;5120541;28;20341;-63
2023/07/11 02:40:19;;;;;;;6.00;4.10;;;21.80;99.90;;;;;;5126304;28;20061;-64
2023/07/11 02:42:51;;;;;;;4.63;3.92;;;21.80;99.90;;;;;;5186749;28;20039;-66
2023/07/11 02:45:24;;;;;;;6.95;4.55;;;22.00;99.90;;;;;;5117451;29;20049;-64
2023/07/11 02:48:04;;;;;;;4.47;3.40;;;22.00;99.90;;;;;;5130460;28;20047;-64
2023/07/11 02:50:37;;;;;;;4.88;3.67;;;22.20;1.00;;;;;;5088840;29;20327;-64
2023/07/11 02:53:10;;;;;;;4.43;3.58;;;22.10;99.90;;;;;;5137174;28;20027;-62
2023/07/11 02:55:41;;;;;;;7.97;4.30;;;22.00;99.90;;;;;;5140974;28;20306;-63
2023/07/11 02:58:15;;;;;;;5.53;4.22;;;21.80;99.90;;;;;;5128812;28;20035;-64
2023/07/11 03:00:51;;;;;;;7.43;3.93;;;21.70;99.90;;;;;;5101469;28;20311;-63
2023/07/11 03:03:23;;;;;;;4.93;3.88;;;21.70;99.90;;;;;;5117350;28;20046;-64
2023/07/11 03:05:55;;;;;;;5.03;3.88;;;21.60;99.90;;;;;;5123337;28;20049;-64
2023/07/11 03:08:30;;;;;;;9.13;4.10;;;21.50;99.90;;;;;;5139945;28;20034;-61
2023/07/11 03:11:03;;;;;;;7.38;3.97;;;21.50;99.90;;;;;;5133874;28;20288;-64
2023/07/11 03:13:36;;;;;;;5.18;3.60;;;21.40;99.90;;;;;;5119909;29;20034;-63
2023/07/11 03:16:08;;;;;;;5.80;3.65;;;21.50;99.90;;;;;;5088987;28;20050;-62
2023/07/11 03:18:42;;;;;;;5.45;4.18;;;21.50;99.90;;;;;;5139261;28;20047;-61
2023/07/11 03:21:16;;;;;;;6.45;3.63;;;21.50;99.90;;;;;;5139462;28;20033;-64
2023/07/11 03:23:47;;;;;;;5.75;3.55;;;21.50;99.90;;;;;;5121132;28;20031;-62
2023/07/11 03:26:19;;;;;;;5.38;4.22;;;21.50;99.90;;;;;;5105095;28;20432;-60
2023/07/11 03:28:51;;;;;;;4.78;3.72;;;21.40;1.00;;;;;;5204958;28;20047;-62
2023/07/11 03:31:26;;;;;;;6.35;3.83;;;21.30;99.90;;;;;;5202602;28;20371;-62
2023/07/11 03:33:57;;;;;;;5.57;4.07;;;21.30;1.00;;;;;;5122340;28;20087;-61
2023/07/11 03:36:31;;;;;;;5.20;3.95;;;21.30;1.00;;;;;;5121974;28;20034;-62
2023/07/11 03:39:03;;;;;;;9.00;4.17;;;21.30;99.90;;;;;;5137490;28;20054;-64
2023/07/11 03:41:42;;;;;;;6.25;3.85;;;21.30;1.00;;;;;;5134627;28;20027;-65
2023/07/11 03:44:16;;;;;;;6.38;4.10;;;21.30;99.90;;;;;;5137758;28;20038;-65
2023/07/11 03:46:52;;;;;;;4.73;3.90;;;21.40;99.90;;;;;;5196538;28;20041;-63
2023/07/11 03:49:23;;;;;;;5.60;3.92;;;21.50;99.90;;;;;;5085705;29;20043;-63
2023/07/11 03:51:57;;;;;;;6.68;3.50;;;21.50;99.90;;;;;;5101538;29;20491;-63
2023/07/11 03:54:33;;;;;;;8.37;4.77;;;21.50;99.90;;;;;;5119084;29;20027;-64
2023/07/11 03:57:05;;;;;;;4.05;3.65;;;21.60;99.90;;;;;;5088183;29;20274;-62
2023/07/11 03:59:38;;;;;;;5.07;3.60;;;21.70;99.90;;;;;;5101396;28;20047;-63
2023/07/11 04:02:09;;;;;;;5.13;3.87;;;21.70;99.90;;;;;;5120083;28;20223;-65
2023/07/11 04:04:43;;;;;;;5.43;3.67;;;21.80;99.90;;;;;;5117172;28;20089;-64
2023/07/11 04:07:15;;;;;;;4.13;3.65;;;21.90;37.30;;;;;;5102490;28;20038;-64
2023/07/11 04:09:49;;;;;;;4.13;3.50;;;22.00;1.00;;;;;;5137593;28;20038;-63
2023/07/11 04:12:21;;;;;;;4.22;3.08;;;22.00;5.50;;;;;;5106601;28;20312;-62
2023/07/11 04:14:52;;;;;;;4.97;3.28;;;22.10;1.00;;;;;;5139201;28;20253;-63
2023/07/11 04:17:23;;;;;;;5.05;3.88;;;22.10;1.00;;;;;;5101783;28;20560;-62
2023/07/11 04:19:57;;;;;;;5.00;4.03;;;22.20;1.00;;;;;;5104929;28;20148;-64
2023/07/11 04:22:37;;;;;;;5.00;3.22;;;22.30;1.00;;;;;;5095221;28;20042;-63
2023/07/11 04:25:09;;;;;;;4.60;3.60;;;22.40;1.00;;;;;;5089769;28;20263;-65
2023/07/11 04:27:40;;;;;;;3.90;3.05;;;22.60;99.90;;;;;;5119946;28;20307;-63
2023/07/11 04:30:15;;;;;;;6.88;3.65;;;22.70;13.80;;;;;;5132496;28;20221;-63
2023/07/11 04:32:48;;;;;;;4.80;3.17;;;22.80;1.00;;;;;;5204356;28;20039;-60
2023/07/11 04:35:25;;;;;;;5.22;3.40;;;23.00;1.00;;;;;;5105004;28;20039;-65
2023/07/11 04:37:59;;;;;;;7.18;3.40;;;23.00;1.00;;;;;;5135428;28;20043;-64
2023/07/11 04:40:35;;;;;;;4.45;3.05;;;23.20;1.00;;;;;;5105762;28;20255;-63
2023/07/11 04:43:06;;;;;;;4.25;3.13;;;23.20;1.00;;;;;;5100765;28;20212;-62
2023/07/11 04:45:40;;;;;;;4.10;3.35;;;23.40;99.90;;;;;;5098821;28;20043;-64
2023/07/11 04:48:16;;;;;;;5.78;3.08;;;23.50;99.90;;;;;;5118503;29;20039;-65
2023/07/11 04:50:54;;;;;;;3.95;3.35;;;23.80;99.90;;;;;;5119161;28;20033;-63
2023/07/11 04:53:32;;;;;;;3.53;2.75;;;24.10;1.00;;;;;;5131295;28;20023;-65
2023/07/11 04:56:06;;;;;;;5.88;3.67;;;24.20;1.00;;;;;;5093389;28;20042;-61
2023/07/11 04:58:40;;;;;;;4.10;2.85;;;24.10;1.00;;;;;;5119967;28;20038;-64
2023/07/11 05:01:16;;;;;;;5.20;3.35;;;24.10;1.00;;;;;;5116385;28;20069;-62
2023/07/11 05:03:51;;;;;;;4.38;3.42;;;24.20;1.00;;;;;;5120719;28;20043;-63
2023/07/11 05:06:26;;;;;;;5.90;3.40;;;24.20;1.00;;;;;;5136357;28;20035;-64
2023/07/11 05:09:00;;;;;;;4.20;3.13;;;24.10;1.00;;;;;;5138299;28;20035;-62
2023/07/11 05:11:32;;;;;;;3.72;3.40;;;24.10;1.00;;;;;;5122821;28;20072;-62
2023/07/11 05:14:03;;;;;;;5.15;3.50;;;24.10;1.00;;;;;;5105946;28;20035;-63
2023/07/11 05:16:35;;;;;;;5.00;3.55;;;24.10;1.00;;;;;;5135713;28;20191;-62
2023/07/11 05:19:07;;;;;;;4.53;3.17;;;24.10;1.00;;;;;;5098118;28;20240;-60
2023/07/11 05:21:43;;;;;;;6.68;3.70;;;24.30;1.00;;;;;;5138178;28;20274;-61
2023/07/11 05:24:19;;;;;;;6.47;4.43;;;24.40;1.00;;;;;;5119025;28;20048;-62
2023/07/11 05:26:53;;;;;;;4.88;3.22;;;24.30;1.00;;;;;;5117070;28;20288;-61
2023/07/11 05:29:24;;;;;;;4.80;3.63;;;24.10;1.00;;;;;;5137687;28;20330;-61
2023/07/11 05:31:56;;;;;;;5.35;3.85;;;24.20;1.00;;;;;;5133359;28;20522;-64
2023/07/11 05:34:27;;;;;;;4.15;3.20;;;24.20;1.00;;;;;;5120423;28;20053;-62
2023/07/11 05:37:00;;;;;;;3.67;3.25;;;24.40;1.00;;;;;;5113897;28;20328;-63
2023/07/11 05:39:37;;;;;;;7.10;3.77;;;24.50;1.00;;;;;;5085764;28;20031;-63
2023/07/11 05:42:09;;;;;;;4.72;3.60;;;24.50;1.00;;;;;;5083985;29;20041;-63
2023/07/11 05:44:45;;;;;;;4.72;3.85;;;24.80;1.00;;;;;;5120120;28;20323;-61
2023/07/11 05:47:19;;;;;;;3.58;3.10;;;24.60;99.90;;;;;;5089210;28;20042;-61
2023/07/11 05:49:52;;;;;;;4.50;3.40;;;24.60;1.00;;;;;;5136634;28;20342;-63
2023/07/11 05:52:26;;;;;;;4.45;3.65;;;24.70;99.90;;;;;;5203650;28;20325;-63
2023/07/11 05:54:58;;;;;;;3.80;2.80;;;24.90;99.90;;;;;;5131651;28;20038;-61
2023/07/11 05:57:29;;;;;;;4.60;3.20;;;24.70;99.90;;;;;;5129365;28;20039;-61
2023/07/11 06:00:01;;;;;;;3.67;3.05;;;24.80;99.90;;;;;;5138100;28;20234;-61
2023/07/11 06:02:35;;;;;;;3.22;2.92;;;24.90;99.90;;;;;;5114187;28;20041;-60
2023/07/11 06:05:08;;;;;;;3.60;2.95;;;24.90;99.90;;;;;;5120918;28;20039;-62
2023/07/11 06:07:39;;;;;;;3.47;2.67;;;25.00;99.90;;;;;;5137487;28;20039;-62
2023/07/11 06:10:11;;;;;;;4.50;3.00;;;25.30;1.00;;;;;;5119938;28;20027;-61
2023/07/11 06:12:45;;;;;;;4.00;3.38;;;25.20;1.00;;;;;;5122132;28;20046;-62
2023/07/11 06:15:20;;;;;;;3.20;2.60;;;25.10;1.00;;;;;;5134087;28;20027;-64
2023/07/11 06:17:51;;;;;;;5.70;3.20;;;25.50;1.00;;;;;;5135353;28;20224;-62
2023/07/11 06:20:24;;;;;;;3.25;2.88;;;25.30;1.00;;;;;;5120490;28;20039;-62
2023/07/11 06:22:57;;;;;;;4.10;2.92;;;25.70;1.00;;;;;;5136147;28;20315;-61
2023/07/11 06:25:33;;;;;;;3.58;2.92;;;26.10;1.00;;;;;;5132215;28;20031;-63
2023/07/11 06:28:04;;;;;;;3.67;2.95;;;25.90;99.90;;;;;;5095454;29;20553;-62
2023/07/11 06:30:36;;;;;;;3.65;2.70;;;25.40;99.90;;;;;;5094647;28;20053;-62
2023/07/11 06:33:14;;;;;;;3.30;2.58;;;25.60;99.90;;;;;;5137448;28;20045;-62
2023/07/11 06:35:52;;;;;;;2.90;2.17;;;26.20;99.90;;;;;;5132952;28;20038;-59
2023/07/11 06:38:24;;;;;;;4.68;2.95;;;26.50;1.00;;;;;;5137580;28;20039;-60
2023/07/11 06:40:56;;;;;;;2.92;2.63;;;26.80;1.00;;;;;;5167133;28;20058;-61
2023/07/11 06:43:30;;;;;;;4.50;3.17;;;26.30;1.00;;;;;;5183772;28;20043;-61
2023/07/11 06:46:11;;;;;;;3.65;2.70;;;26.30;99.90;;;;;;5200989;28;20015;-61
2023/07/11 06:48:43;;;;;;;4.75;3.38;;;26.20;99.90;;;;;;5137074;28;20041;-60
2023/07/11 06:51:14;;;;;;;3.22;2.60;;;26.40;99.90;;;;;;5105384;28;20259;-60
2023/07/11 06:53:49;;;;;;;3.63;2.58;;;26.60;99.90;;;;;;5108106;28;20068;-60
2023/07/11 06:56:25;;;;;;;3.17;2.38;;;26.90;99.90;;;;;;5119412;28;20035;-59
2023/07/11 06:59:00;;;;;;;4.10;2.95;;;26.90;99.90;;;;;;5120190;28;20629;-62
2023/07/11 07:01:35;;;;;;;3.58;2.30;;;26.70;53.80;;;;;;5132320;28;20039;-61
2023/07/11 07:04:06;;;;;;;3.15;2.85;;;26.50;1.00;;;;;;5135864;28;20041;-59
2023/07/11 07:06:37;;;;;;;3.35;2.75;;;26.40;1.00;;;;;;5108433;28;20038;-60
2023/07/11 07:09:11;;;;;;;3.13;2.50;;;26.60;11.00;;;;;;5140724;28;20037;-61
2023/07/11 07:11:45;;;;;;;2.92;2.30;;;27.00;1.00;;;;;;5096686;28;20043;-61
2023/07/11 07:14:22;;;;;;;3.90;2.83;;;26.70;1.00;;;;;;5099862;28;20031;-60
2023/07/11 07:16:56;;;;;;;5.95;2.97;;;26.90;1.00;;;;;;5105493;28;20039;-60
2023/07/11 07:19:32;;;;;;;5.88;3.22;;;27.20;1.00;;;;;;5107623;28;20052;-62
2023/07/11 07:22:07;;;;;;;3.70;2.50;;;27.30;1.00;;;;;;5094030;28;20038;-61
2023/07/11 07:24:41;;;;;;;4.47;2.92;;;27.10;1.00;;;;;;5122773;28;20251;-62
2023/07/11 07:27:16;;;;;;;6.13;2.50;;;27.20;1.00;;;;;;5103958;28;20263;-61
2023/07/11 07:29:48;;;;;;;4.03;2.85;;;27.50;1.00;;;;;;5107944;28;20049;-60
2023/07/11 07:32:21;;;;;;;2.70;2.35;;;27.60;1.00;;;;;;5137721;28;20035;-61
2023/07/11 07:34:52;;;;;;;3.60;2.75;;;27.70;99.90;;;;;;5129855;28;20330;-60
2023/07/11 07:37:27;;;;;;;3.20;2.50;;;27.80;99.90;;;;;;5103386;29;20340;-60
2023/07/11 07:40:00;;;;;;;2.58;2.15;;;28.40;99.90;;;;;;5087052;29;20045;-63
2023/07/11 07:42:32;;;;;;;3.87;2.20;;;28.80;21.60;;;;;;5118219;28;20045;-60
2023/07/11 07:45:04;;;;;;;3.10;2.55;;;28.70;1.00;;;;;;5122159;28;20049;-64
2023/07/11 07:47:36;;;;;;;2.65;2.20;;;28.90;1.00;;;;;;5108537;28;20045;-62
2023/07/11 07:50:07;;;;;;;2.80;2.10;;;29.20;1.00;;;;;;5091061;28;20372;-62
2023/07/11 07:52:41;;;;;;;2.60;2.40;;;29.40;1.00;;;;;;5141023;28;20047;-61
2023/07/11 07:55:18;;;;;;;2.83;2.10;;;29.10;1.00;;;;;;5122619;28;20073;-62
2023/07/11 07:57:52;;;;;;;2.72;2.40;;;28.70;1.00;;;;;;5104901;28;20046;-60
2023/07/11 08:00:23;;;;;;;3.42;2.58;;;28.90;1.00;;;;;;5121589;28;20258;-60
2023/07/11 08:02:56;;;;;;;3.72;2.92;;;29.00;1.00;;;;;;5133658;28;20042;-62
2023/07/11 08:05:30;;;;;;;3.70;3.00;;;29.10;1.00;;;;;;5118559;29;20037;-62
2023/07/11 08:08:01;;;;;;;4.38;2.63;;;28.70;1.00;;;;;;5119901;28;20037;-63
2023/07/11 08:10:33;;;;;;;3.45;2.53;;;28.50;1.00;;;;;;5102453;29;20049;-60
2023/07/11 08:13:07;;;;;;;3.50;2.47;;;28.80;1.00;;;;;;5119836;29;20035;-61
2023/07/11 08:15:41;;;;;;;3.25;2.60;;;28.80;1.00;;;;;;5100588;28;20050;-59
2023/07/11 08:18:12;;;;;;;2.90;2.42;;;28.80;1.00;;;;;;5105859;28;20039;-62
2023/07/11 08:20:44;;;;;;;4.13;2.78;;;29.50;1.00;;;;;;5122812;28;20042;-63
2023/07/11 08:23:18;;;;;;;5.30;2.67;;;29.90;1.00;;;;;;5100059;28;20039;-62
2023/07/11 08:25:55;;;;;;;2.85;2.35;;;30.40;1.00;;;;;;5102402;29;20031;-61
2023/07/11 08:28:29;;;;;;;2.35;2.10;;;30.10;1.00;;;;;;5137957;28;20034;-62
2023/07/11 08:31:04;;;;;;;3.72;2.65;;;30.00;1.00;;;;;;5104060;28;20066;-62
2023/07/11 08:33:36;;;;;;;2.85;2.42;;;30.00;1.00;;;;;;5140271;28;20027;-62
2023/07/11 08:36:08;;;;;;;2.17;2.03;;;30.20;1.00;;;;;;5122969;28;20039;-60
2023/07/11 08:38:43;;;;;;;3.10;2.45;;;30.70;1.00;;;;;;5137933;28;20031;-60
2023/07/11 08:41:35;;;;;;;2.20;2.00;;;30.80;1.00;;;;;;5106906;28;20027;-62
2023/07/11 08:44:16;;;;;;;2.90;1.95;;;30.40;1.00;;;;;;5175093;28;20038;-62
2023/07/11 08:47:11;;;;;;;3.40;2.40;;;30.70;1.00;;;;;;5137364;28;20035;-63
2023/07/11 08:49:51;;;;;;;6.82;2.63;;;30.70;1.00;;;;;;5134259;28;20061;-62
2023/07/11 08:52:27;;;;;;;4.10;2.95;;;31.30;1.00;;;;;;5102221;29;20043;-61
2023/07/11 08:55:27;;;;;;;3.25;2.20;;;31.30;99.90;;;;;;5119387;29;20037;-59
2023/07/11 08:58:06;;;;;;;2.42;2.20;;;32.20;99.90;;;;;;5115605;28;20026;-62
2023/07/11 09:00:43;;;;;;;3.70;2.30;;;32.90;99.90;;;;;;5105505;28;20394;-61
2023/07/11 09:03:30;;;;;;;3.25;2.13;;;32.90;99.90;;;;;;5137551;28;20057;-60
2023/07/11 09:06:07;;;;;;;3.17;2.53;;;32.90;99.90;;;;;;5139845;28;20230;-61
2023/07/11 09:08:54;;;;;;;3.28;2.25;;;33.20;99.90;;;;;;5133905;28;20031;-61
2023/07/11 09:11:58;;;;;;;3.40;2.40;;;33.00;99.90;;;;;;5103470;28;20941;-59
2023/07/11 09:14:43;;;;;;;4.63;2.72;;;32.90;30.80;;;;;;5141027;28;20360;-58
2023/07/11 09:17:23;;;;;;;2.53;2.00;;;32.50;99.90;;;;;;5103616;28;20035;-61
2023/07/11 09:20:16;;;;;;;2.92;2.63;;;32.60;99.90;;;;;;5087204;28;20039;-60
2023/07/11 09:23:20;;;;;;;2.78;2.28;;;32.70;57.50;;;;;;5119711;28;20028;-61
2023/07/11 09:25:57;;;;;;;4.83;3.17;;;32.60;77.00;;;;;;5086468;28;20376;-61
2023/07/11 09:28:33;;;;;;;2.72;2.45;;;32.30;37.80;;;;;;5137897;28;20233;-61
2023/07/11 09:31:13;;;;;;;3.17;2.60;;;33.00;69.70;;;;;;5101529;28;20043;-63
2023/07/11 09:33:54;;;;;;;2.65;2.35;;;34.20;67.50;;;;;;5138535;28;20541;-63
2023/07/11 09:36:37;;;;;;;2.47;2.22;;;34.00;27.00;;;;;;5136316;28;20041;-63
2023/07/11 09:39:21;;;;;;;3.38;2.50;;;33.40;50.60;;;;;;5127362;28;20993;-63
2023/07/11 09:42:13;;;;;;;3.08;2.22;;;33.30;1.00;;;;;;5188004;28;20042;-62
2023/07/11 09:44:59;;;;;;;5.63;2.58;;;33.70;15.10;;;;;;5121632;28;20044;-62
2023/07/11 09:47:32;;;;;;;2.65;2.15;;;33.30;9.30;;;;;;5119966;28;20039;-62
2023/07/11 09:50:21;;;;;;;2.73;2.10;;;33.70;28.20;;;;;;5107033;28;20047;-60
2023/07/11 09:52:55;;;;;;;2.60;2.15;;;34.70;13.10;;;;;;5100691;28;20466;-61
2023/07/11 09:55:34;;;;;;;3.08;2.60;;;34.50;20.30;;;;;;5087882;29;20035;-61
2023/07/11 09:58:16;;;;;;;7.53;2.80;;;35.10;19.80;;;;;;5098222;28;20034;-60
2023/07/11 10:00:50;;;;;;;3.05;2.40;;;35.80;1.00;;;;;;5085299;28;20256;-63
2023/07/11 10:03:25;;;;;;;4.10;2.85;;;35.90;1.00;;;;;;5120710;28;20045;-63
2023/07/11 10:05:57;;;;;;;4.85;2.70;;;35.90;1.00;;;;;;5136972;28;20042;-63
2023/07/11 10:08:37;;;;;;;2.75;2.13;;;35.60;1.00;;;;;;5120816;28;20027;-63
2023/07/11 10:11:13;;;;;;;3.08;2.78;;;34.90;1.00;;;;;;5136695;28;20130;-60
2023/07/11 10:13:57;;;;;;;3.03;2.65;;;35.20;1.00;;;;;;5137072;28;20727;-62
2023/07/11 10:16:33;;;;;;;4.07;2.70;;;35.60;1.00;;;;;;5135262;28;20037;-65
2023/07/11 10:19:18;;;;;;;3.40;2.50;;;36.10;1.00;;;;;;5106885;28;20037;-62
2023/07/11 10:21:57;;;;;;;2.95;2.65;;;36.00;1.00;;;;;;5122616;28;20039;-63
2023/07/11 10:24:38;;;;;;;3.13;2.63;;;35.80;1.00;;;;;;5105203;28;20039;-60
2023/07/11 10:27:16;;;;;;;3.45;2.88;;;36.10;1.00;;;;;;5127859;28;20031;-63
2023/07/11 10:29:54;;;;;;;4.05;3.00;;;35.10;1.00;;;;;;5118733;28;20037;-63
2023/07/11 10:32:34;;;;;;;4.97;3.00;;;36.10;1.00;;;;;;5131673;28;20491;-62
2023/07/11 10:35:13;;;;;;;3.80;3.00;;;37.00;1.00;;;;;;5121178;28;20034;-61
2023/07/11 10:37:54;;;;;;;3.78;2.80;;;37.20;1.00;;;;;;5137170;28;20045;-62
2023/07/11 10:40:40;;;;;;;3.33;2.83;;;38.40;1.00;;;;;;5141821;28;20050;-62
2023/07/11 10:43:14;;;;;;;3.70;2.80;;;39.10;1.00;;;;;;5132546;28;20038;-64
2023/07/11 10:45:47;;;;;;;3.38;2.75;;;38.30;1.00;;;;;;5135487;28;20250;-62
2023/07/11 10:48:34;;;;;;;3.03;2.50;;;38.30;1.00;;;;;;5126615;28;20038;-62
2023/07/11 10:51:19;;;;;;;6.25;3.08;;;38.50;1.00;;;;;;5110073;28;20033;-62
2023/07/11 10:54:08;;;;;;;3.38;3.00;;;38.10;1.00;;;;;;5123577;28;20434;-62
2023/07/11 10:56:46;;;;;;;3.15;2.60;;;39.00;1.00;;;;;;5140867;28;20035;-62
2023/07/11 10:59:24;;;;;;;3.92;2.78;;;38.90;1.00;;;;;;5141298;28;20522;-62
2023/07/11 11:02:10;;;;;;;3.78;3.22;;;39.20;1.00;;;;;;5120871;28;20046;-63
2023/07/11 11:05:23;;;;;;;5.95;3.20;;;39.80;99.90;;;;;;5124054;28;20043;-64
2023/07/11 11:08:15;;;;;;;3.05;2.75;;;40.30;99.90;;;;;;5122786;28;20042;-62
2023/07/11 11:10:55;;;;;;;4.22;3.83;;;41.20;99.90;;;;;;5122249;28;20031;-59
2023/07/11 11:14:04;;;;;;;3.38;3.08;;;41.70;99.90;;;;;;5088499;29;20035;-63
2023/07/11 11:16:59;;;;;;;7.45;3.38;;;40.60;57.90;;;;;;5122609;28;20219;-63
2023/07/11 11:19:42;;;;;;;3.10;2.80;;;37.60;40.10;;;;;;5089634;28;20043;-60
2023/07/11 11:22:16;;;;;;;3.58;3.28;;;38.40;1.00;;;;;;5136654;28;20049;-60
2023/07/11 11:25:05;;;;;;;3.50;3.00;;;38.80;1.00;;;;;;5141485;28;20349;-63
2023/07/11 11:27:46;;;;;;;4.03;3.25;;;37.50;1.00;;;;;;5141432;28;20029;-62
2023/07/11 11:31:15;;;;;;;3.58;3.10;;;38.50;1.00;;;;;;5106577;28;20039;-61
2023/07/11 11:34:06;;;;;;;3.78;3.38;;;39.70;1.00;;;;;;5148695;28;20038;-62
2023/07/11 11:37:29;;;;;;;3.15;2.85;;;40.90;1.00;;;;;;5145593;28;20052;-63
2023/07/11 11:40:22;;;;;;;3.33;3.03;;;41.20;1.00;;;;;;5181091;28;20051;-63
2023/07/11 11:43:05;;;;;;;3.95;3.42;;;41.40;1.00;;;;;;5154984;28;20048;-63
2023/07/11 11:45:39;;;;;;;4.07;3.33;;;38.20;1.00;;;;;;5180107;28;20033;-66
2023/07/11 11:48:40;;;;;;;7.50;3.63;;;38.50;1.00;;;;;;5165472;28;20029;-64
2023/07/11 11:51:23;;;;;;;3.40;2.97;;;39.70;1.00;;;;;;5148557;28;20241;-63
2023/07/11 11:54:34;;;;;;;4.40;3.10;;;41.00;1.00;;;;;;5165917;28;20034;-61
2023/07/11 11:57:06;;;;;;;4.40;2.65;;;40.70;1.00;;;;;;5140593;28;20179;-59
2023/07/11 11:59:41;;;;;;;4.80;3.42;;;39.40;1.00;;;;;;5140588;28;20039;-61
2023/07/11 12:02:17;;;;;;;5.28;3.00;;;39.40;1.00;;;;;;5126908;28;20393;-61
2023/07/11 12:05:18;;;;;;;3.85;3.55;;;40.10;1.00;;;;;;5064060;29;20679;-64
2023/07/11 12:08:26;;;;;;;4.25;3.20;;;41.10;1.00;;;;;;5077440;28;20088;-63
2023/07/11 12:11:10;;;;;;;3.45;3.13;;;42.40;1.00;;;;;;5079064;28;20028;-64
2023/07/11 12:13:47;;;;;;;3.10;2.80;;;44.70;1.00;;;;;;5146010;28;20028;-60
2023/07/11 12:16:24;;;;;;;3.63;3.17;;;45.60;1.00;;;;;;5078367;29;20036;-61
2023/07/11 12:19:22;;;;;;;3.40;3.10;;;45.80;1.00;;;;;;5079775;28;20360;-61
2023/07/11 12:22:05;;;;;;;5.47;3.63;;;44.90;1.00;;;;;;5063597;29;20500;-63
2023/07/11 12:24:38;;;;;;;3.35;3.05;;;45.10;1.00;;;;;;5062756;29;20044;-62
2023/07/11 12:27:19;;;;;;;5.03;3.30;;;45.00;1.00;;;;;;5047697;28;20033;-63
2023/07/11 12:29:52;;;;;;;3.25;2.95;;;45.50;1.00;;;;;;5060319;29;20636;-64
2023/07/11 12:32:32;;;;;;;3.85;3.45;;;43.10;1.00;;;;;;5097236;28;20328;-64
2023/07/11 12:35:09;;;;;;;4.55;3.15;;;42.60;1.00;;;;;;5120489;28;20037;-61
2023/07/11 12:38:01;;;;;;;3.38;3.08;;;42.50;1.00;;;;;;5170460;28;20053;-64
2023/07/11 12:40:39;;;;;;;3.13;2.92;;;44.50;1.00;;;;;;5106009;28;20047;-61
2023/07/11 12:43:24;;;;;;;3.63;3.30;;;46.00;1.00;;;;;;5108064;28;20038;-62
2023/07/11 12:45:59;;;;;;;4.82;3.15;;;46.80;1.00;;;;;;5106632;28;20247;-64
2023/07/11 12:48:42;;;;;;;4.07;3.40;;;46.50;1.00;;;;;;5108090;28;20434;-63
2023/07/11 12:51:40;;;;;;;;;;;46.50;1.00;;;;;;5108784;28;20038;-62
2023/07/11 12:54:16;;;;;;;4.43;3.17;;;46.30;1.00;;;;;;5141919;28;19909;-63
2023/07/11 12:56:53;;;;;;;4.90;3.60;;;45.80;1.00;;;;;;5121693;28;20046;-63
2023/07/11 12:59:27;;;;;;;4.60;3.25;;;45.10;1.00;;;;;;5117079;28;20251;-61
2023/07/11 13:02:05;;;;;;;7.07;3.92;;;46.00;1.00;;;;;;5123729;28;20061;-65
2023/07/11 13:04:43;;;;;;;5.80;3.22;;;45.00;1.00;;;;;;5118755;28;20057;-62
2023/07/11 13:07:18;;;;;;;3.85;3.53;;;44.30;1.00;;;;;;5117123;28;20023;-61
2023/07/11 13:10:01;;;;;;;3.85;3.17;;;43.90;1.00;;;;;;5119962;29;20035;-62
2023/07/11 13:12:37;;;;;;;4.20;3.38;;;43.50;1.00;;;;;;5090446;28;20246;-67
2023/07/11 13:15:18;;;;;;;4.70;3.63;;;42.70;1.00;;;;;;5109790;28;20041;-63
2023/07/11 13:17:55;;;;;;;4.18;3.08;;;42.70;1.00;;;;;;5139992;28;20061;-65
2023/07/11 13:20:31;;;;;;;3.95;3.55;;;42.80;1.00;;;;;;5107256;28;20030;-64
2023/07/11 13:23:02;;;;;;;3.80;3.40;;;42.80;1.00;;;;;;5120941;28;20038;-64
2023/07/11 13:25:39;;;;;;;3.35;3.00;;;43.50;1.00;;;;;;5139870;28;20023;-63
2023/07/11 13:28:22;;;;;;;3.35;3.03;;;43.50;1.00;;;;;;5169200;28;20050;-62
2023/07/11 13:31:00;;;;;;;3.95;3.53;;;44.00;1.00;;;;;;5137852;28;20246;-65
2023/07/11 13:33:37;;;;;;;5.82;3.50;;;44.10;1.00;;;;;;5107516;28;20031;-64
2023/07/11 13:36:19;;;;;;;4.45;3.60;;;43.50;1.00;;;;;;5139884;28;20033;-65
2023/07/11 13:38:52;;;;;;;5.35;3.50;;;43.20;1.00;;;;;;5110327;28;20035;-61
2023/07/11 13:41:32;;;;;;;4.55;3.00;;;43.40;1.00;;;;;;5185089;28;20046;-64
2023/07/11 13:44:13;;;;;;;5.63;3.80;;;43.10;1.00;;;;;;5119792;29;20058;-64